Map

Track Data

SID SEASON NUMBER BASIN SUBBASIN NAME ISO_TIME NATURE LAT LON WMO_WIND WMO_PRES WMO_AGENCY TRACK_TYPE DIST2LAND LANDFALL IFLAG USA_AGENCY USA_ATCF_ID USA_LAT USA_LON USA_RECORD USA_STATUS USA_WIND USA_PRES USA_SSHS USA_R34_NE USA_R34_SE USA_R34_SW USA_R34_NW USA_R50_NE USA_R50_SE USA_R50_SW USA_R50_NW USA_R64_NE USA_R64_SE USA_R64_SW USA_R64_NW USA_POCI USA_ROCI USA_RMW USA_EYE TOKYO_LAT TOKYO_LON TOKYO_GRADE TOKYO_WIND TOKYO_PRES TOKYO_R50_DIR TOKYO_R50_LONG TOKYO_R50_SHORT TOKYO_R30_DIR TOKYO_R30_LONG TOKYO_R30_SHORT TOKYO_LAND CMA_LAT CMA_LON CMA_CAT CMA_WIND CMA_PRES HKO_LAT HKO_LON HKO_CAT HKO_WIND HKO_PRES NEWDELHI_LAT NEWDELHI_LON NEWDELHI_GRADE NEWDELHI_WIND NEWDELHI_PRES NEWDELHI_CI NEWDELHI_DP NEWDELHI_POCI REUNION_LAT REUNION_LON REUNION_TYPE REUNION_WIND REUNION_PRES REUNION_TNUM REUNION_CI REUNION_RMW REUNION_R34_NE REUNION_R34_SE REUNION_R34_SW REUNION_R34_NW REUNION_R50_NE REUNION_R50_SE REUNION_R50_SW REUNION_R50_NW REUNION_R64_NE REUNION_R64_SE REUNION_R64_SW REUNION_R64_NW BOM_LAT BOM_LON BOM_TYPE BOM_WIND BOM_PRES BOM_TNUM BOM_CI BOM_RMW BOM_R34_NE BOM_R34_SE BOM_R34_SW BOM_R34_NW BOM_R50_NE BOM_R50_SE BOM_R50_SW BOM_R50_NW BOM_R64_NE BOM_R64_SE BOM_R64_SW BOM_R64_NW BOM_ROCI BOM_POCI BOM_EYE BOM_POS_METHOD BOM_PRES_METHOD NADI_LAT NADI_LON NADI_CAT NADI_WIND NADI_PRES WELLINGTON_LAT WELLINGTON_LON WELLINGTON_WIND WELLINGTON_PRES DS824_LAT DS824_LON DS824_STAGE DS824_WIND DS824_PRES TD9636_LAT TD9636_LON TD9636_STAGE TD9636_WIND TD9636_PRES TD9635_LAT TD9635_LON TD9635_WIND TD9635_PRES TD9635_ROCI NEUMANN_LAT NEUMANN_LON NEUMANN_CLASS NEUMANN_WIND NEUMANN_PRES MLC_LAT MLC_LON MLC_CLASS MLC_WIND MLC_PRES USA_GUST BOM_GUST BOM_GUST_PER REUNION_GUST REUNION_GUST_PER USA_SEAHGT USA_SEARAD_NE USA_SEARAD_SE USA_SEARAD_SW USA_SEARAD_NW STORM_SPEED STORM_DIR
1976345S13179 1977 141 SP MM KIM 1976-12-09 12:00:00 TS -12.5000 179.000 30 997 wellington main 423 414 ________O___O_ -1 -12.5000 179.000 30 997 -12.5000 179.000 TC 15 30 92
1976345S13179 1977 141 SP MM KIM 1976-12-09 15:00:00 TS -12.5528 180.547 main 408 408 ________P___P_ -1 -12.5794 -179.383 30 997 -12.5261 -179.522 TC 17 30 93
1976345S13179 1977 141 SP MM KIM 1976-12-09 18:00:00 TS -12.6364 182.094 main 467 408 ________P___O_ -1 -12.6727 -177.812 30 997 -12.6000 -178.000 TC 20 30 94
1976345S13179 1977 141 SP MM KIM 1976-12-09 21:00:00 TS -12.7836 183.616 main 397 255 ________P___P_ -1 -12.8044 -176.335 30 997 -12.7627 -176.433 TC 22 29 97
1976345S13179 1977 141 SP MM KIM 1976-12-10 00:00:00 TS -13.0000 185.000 30 997 wellington main 244 121 ________O___O_ -1 -13.0000 -175.000 30 997 -13.0000 -175.000 TC 25 25 101
1976345S13179 1977 141 SP MM KIM 1976-12-10 03:00:00 TS -13.2701 186.148 main 121 15 ________P___P_ -1 -13.2788 -173.837 32 995 -13.2613 -173.867 TC 25 22 106
1976345S13179 1977 141 SP MM KIM 1976-12-10 06:00:00 TS -13.6163 187.144 main 15 0 ________P___O_ -1 -13.6326 -172.813 35 993 -13.6000 -172.900 TC 25 20 112
1976345S13179 1977 141 SP MM KIM 1976-12-10 09:00:00 TS -14.0324 188.095 main 39 39 ________P___P_ -1 -14.0453 -171.883 37 991 -14.0195 -171.927 TC 25 20 116
1976345S13179 1977 141 SP MM KIM 1976-12-10 12:00:00 TS -14.5000 189.000 40 990 wellington main 151 151 ________O___O_ -1 -14.5000 -171.000 40 990 -14.5000 -171.000 TC 25 20 118
1976345S13179 1977 141 SP MM KIM 1976-12-10 15:00:00 TS -14.9773 189.913 main 263 263 ________P___P_ -1 -14.9624 -170.088 40 990 -14.9921 -170.085 TC 25 20 119
1976345S13179 1977 141 SP MM KIM 1976-12-10 18:00:00 TS -15.4801 190.794 main 374 374 ________P___O_ -1 -15.4603 -169.211 40 990 -15.5000 -169.200 TC 25 20 121
1976345S13179 1977 141 SP MM KIM 1976-12-10 21:00:00 TS -15.9888 191.648 main 476 476 ________P___P_ -1 -15.9781 -168.354 40 990 -15.9995 -168.349 TC 27 19 122
1976345S13179 1977 141 SP MM KIM 1976-12-11 00:00:00 TS -16.5000 192.500 40 990 wellington main 588 588 ________O___O_ -1 -16.5000 -167.500 40 990 -16.5000 -167.500 TC 30 19 121
1976345S13179 1977 141 SP MM KIM 1976-12-11 03:00:00 TS -16.9848 193.377 main 699 699 ________P___P_ -1 -16.9698 -166.646 40 990 -16.9998 -166.600 TC 30 19 120
1976345S13179 1977 141 SP MM KIM 1976-12-11 06:00:00 TS -17.4724 194.255 main 809 809 ________P___O_ -1 -17.4449 -165.790 40 990 -17.5000 -165.700 TC 30 19 121
1976345S13179 1977 141 SP MM KIM 1976-12-11 09:00:00 TS -17.9621 195.107 main 911 911 ________P___P_ -1 -17.9476 -164.914 40 990 -17.9766 -164.871 TC 30 20 122
1976345S13179 1977 141 SP MM KIM 1976-12-11 12:00:00 TS -18.5000 196.000 40 990 wellington main 1021 1021 ________O___O_ -1 -18.5000 -164.000 40 990 -18.5000 -164.000 TC 30 21 123
1976345S13179 1977 141 SP MM KIM 1976-12-11 15:00:00 TS -19.1356 196.989 main 1146 1146 ________P___P_ -1 -19.1512 -163.050 43 987 -19.1200 -162.972 TC 32 23 125
1976345S13179 1977 141 SP MM KIM 1976-12-11 18:00:00 TS -19.8235 198.023 main 1276 1276 ________P___O_ -1 -19.8470 -162.054 47 985 -19.8000 -161.900 TC 35 24 126
1976345S13179 1977 141 SP MM KIM 1976-12-11 21:00:00 TS -20.5253 199.036 main 1405 1405 ________P___P_ -1 -20.5443 -161.006 51 982 -20.5062 -160.922 TC 35 24 125
1976345S13179 1977 141 SP MM KIM 1976-12-12 00:00:00 TS -21.2000 200.100 55 980 wellington main 1544 1544 ________O___O_ -1 -21.2000 -159.900 55 980 -21.2000 -159.900 TC 35 24 122
1976345S13179 1977 141 SP MM KIM 1976-12-12 03:00:00 TS -21.8201 201.243 main 1676 1676 ________P___P_ -1 -21.7957 -158.776 51 982 -21.8446 -158.737 TC 35 25 118
1976345S13179 1977 141 SP MM KIM 1976-12-12 06:00:00 TS -22.3686 202.454 main 1825 1825 ________P___O_ -1 -22.3372 -157.591 47 985 -22.4000 -157.500 TC 35 25 114
1976345S13179 1977 141 SP MM KIM 1976-12-12 09:00:00 TS -22.8267 203.685 main 1955 1955 ________P___P_ -1 -22.8101 -156.336 43 987 -22.8432 -156.294 TC 32 25 110
1976345S13179 1977 141 SP MM KIM 1976-12-12 12:00:00 TS -23.2000 205.000 40 990 wellington main 2093 2093 ________O___O_ -1 -23.2000 -155.000 40 990 -23.2000 -155.000 TC 30 26 105
1976345S13179 1977 141 SP MM KIM 1976-12-12 15:00:00 TS -23.5210 206.441 main 2236 2236 ________P___P_ -1 -23.4975 -153.580 37 991 -23.5446 -153.538 TC 30 28 102
1976345S13179 1977 141 SP MM KIM 1976-12-12 18:00:00 TS -23.7582 207.954 main 2398 2398 ________P___O_ -1 -23.7165 -152.091 35 993 -23.8000 -152.000 TC 30 28 98
1976345S13179 1977 141 SP MM KIM 1976-12-12 21:00:00 TS -23.9072 209.478 main 2542 2542 ________P___P_ -1 -23.8770 -150.557 32 995 -23.9373 -150.487 TC 27 28 95
1976345S13179 1977 141 SP MM KIM 1976-12-13 00:00:00 TS -24.0000 211.000 30 997 wellington main 2688 ________O___O_ -1 -24.0000 -149.000 30 997 -24.0000 -149.000 TC 25 28 94

Digital Typhoon Data and Search

About IBTrACS Database

This database is a web-friendly format of International Best Track Archive for Climate Stewardship (IBTrACS), a global best track data archive curated by NOAA dating back to 1842.

Updated: 2021-10-08